createdAt,value
2019-02-15T00:00:36.253Z,99.90
2019-02-15T00:03:07.279Z,99.90
2019-02-15T00:05:36.420Z,99.90
2019-02-15T00:08:05.796Z,99.90
2019-02-15T00:10:35.153Z,99.90
2019-02-15T00:13:13.049Z,99.90
2019-02-15T00:15:35.536Z,99.90
2019-02-15T00:18:22.744Z,99.90
2019-02-15T00:20:59.543Z,99.90
2019-02-15T00:23:29.232Z,99.90
2019-02-15T00:25:58.609Z,99.90
2019-02-15T00:28:27.892Z,99.90
2019-02-15T00:30:57.418Z,99.90
2019-02-15T00:33:27.380Z,99.90
2019-02-15T00:35:56.663Z,99.90
2019-02-15T00:38:26.024Z,99.90
2019-02-15T00:40:55.180Z,99.90
2019-02-15T00:43:25.300Z,99.90
2019-02-15T00:46:16.540Z,99.90
2019-02-15T00:48:45.776Z,99.90
2019-02-15T00:51:52.345Z,99.90
2019-02-15T00:54:30.288Z,99.90
2019-02-15T00:57:17.572Z,99.90
2019-02-15T00:59:52.928Z,99.90
2019-02-15T01:02:31.085Z,99.90
2019-02-15T01:05:18.073Z,99.90
2019-02-15T01:07:55.573Z,99.90
2019-02-15T01:10:36.642Z,99.90
2019-02-15T01:13:15.444Z,99.90
2019-02-15T01:15:45.156Z,99.90
2019-02-15T01:18:14.136Z,99.90
2019-02-15T01:20:43.864Z,99.90
2019-02-15T01:23:13.310Z,99.90
2019-02-15T01:26:04.441Z,99.90
2019-02-15T01:28:51.422Z,99.90
2019-02-15T01:31:50.916Z,99.90
2019-02-15T01:34:42.347Z,99.90
2019-02-15T01:37:33.645Z,99.90
2019-02-15T01:40:20.901Z,99.90
2019-02-15T01:43:09.145Z,99.90
2019-02-15T01:45:50.920Z,99.90
2019-02-15T01:48:20.016Z,99.90
2019-02-15T01:50:49.825Z,99.90
2019-02-15T01:53:20.144Z,99.90
2019-02-15T01:55:49.704Z,99.90
2019-02-15T01:58:19.824Z,99.90
2019-02-15T02:00:49.933Z,99.90
2019-02-15T02:03:19.951Z,99.90
2019-02-15T02:05:50.101Z,99.90
2019-02-15T02:08:23.117Z,99.90
2019-02-15T02:10:52.312Z,99.90
2019-02-15T02:13:21.372Z,99.90
2019-02-15T02:15:50.636Z,99.90
2019-02-15T02:18:20.172Z,99.90
2019-02-15T02:20:49.959Z,99.90
2019-02-15T02:23:20.464Z,99.90
2019-02-15T02:25:49.860Z,99.90
2019-02-15T02:28:20.213Z,99.90
2019-02-15T02:30:49.753Z,99.90
2019-02-15T02:33:19.816Z,99.90
2019-02-15T02:35:49.887Z,99.90
2019-02-15T02:38:19.827Z,99.90
2019-02-15T02:40:49.816Z,99.90
2019-02-15T02:43:19.806Z,99.90
2019-02-15T02:45:50.148Z,99.90
2019-02-15T02:48:20.517Z,99.90
2019-02-15T02:50:49.807Z,99.90
2019-02-15T02:53:19.925Z,99.90
2019-02-15T02:55:50.013Z,99.90
2019-02-15T02:58:20.101Z,99.90
2019-02-15T03:00:49.817Z,99.90
2019-02-15T03:03:20.179Z,99.90
2019-02-15T03:05:49.780Z,99.90
2019-02-15T03:08:19.976Z,99.90
2019-02-15T03:10:50.033Z,99.90
2019-02-15T03:13:19.836Z,99.90
2019-02-15T03:15:49.752Z,99.90
2019-02-15T03:18:19.717Z,99.90
2019-02-15T03:20:50.258Z,99.90
2019-02-15T03:23:19.913Z,99.90
2019-02-15T03:25:50.022Z,99.90
2019-02-15T03:28:20.122Z,99.90
2019-02-15T03:30:50.327Z,99.90
2019-02-15T03:33:19.913Z,99.90
2019-02-15T03:35:55.894Z,99.90
2019-02-15T03:38:45.143Z,99.90
2019-02-15T03:41:39.357Z,99.90
2019-02-15T03:44:08.546Z,99.90
2019-02-15T03:46:38.144Z,99.90
2019-02-15T03:49:07.549Z,99.90
2019-02-15T03:51:36.659Z,99.90
2019-02-15T03:54:05.763Z,99.90
2019-02-15T03:56:34.822Z,99.90
2019-02-15T03:59:04.036Z,99.90
2019-02-15T04:01:33.471Z,99.90
2019-02-15T04:04:02.813Z,99.90
2019-02-15T04:06:32.248Z,99.90
2019-02-15T04:09:01.366Z,99.90
2019-02-15T04:11:30.728Z,99.90
2019-02-15T04:14:00.080Z,99.90
2019-02-15T04:16:29.365Z,99.90
2019-02-15T04:18:58.539Z,99.90
2019-02-15T04:21:28.443Z,99.90
2019-02-15T04:23:58.092Z,99.90
2019-02-15T04:26:27.182Z,99.90
2019-02-15T04:28:56.713Z,99.90
2019-02-15T04:31:25.869Z,99.90
2019-02-15T04:33:54.964Z,99.90
2019-02-15T04:36:24.494Z,99.90
2019-02-15T04:38:53.830Z,99.90
2019-02-15T04:41:23.394Z,99.90
2019-02-15T04:43:52.573Z,99.90
2019-02-15T04:46:21.873Z,99.90
2019-02-15T04:48:51.060Z,99.90
2019-02-15T04:51:20.396Z,99.90
2019-02-15T04:53:50.396Z,99.90
2019-02-15T04:56:20.384Z,99.90
2019-02-15T04:58:49.552Z,99.90
2019-02-15T05:01:18.808Z,99.90
2019-02-15T05:03:47.914Z,99.90
2019-02-15T05:06:17.306Z,99.90
2019-02-15T05:08:46.528Z,99.90
2019-02-15T05:11:15.706Z,99.90
2019-02-15T05:13:45.146Z,99.90
2019-02-15T05:16:14.256Z,99.90
2019-02-15T05:18:43.616Z,99.90
2019-02-15T05:21:12.962Z,99.90
2019-02-15T05:23:42.469Z,99.90
2019-02-15T05:26:11.748Z,99.90
2019-02-15T05:28:41.122Z,99.90
2019-02-15T05:31:10.500Z,99.90
2019-02-15T05:33:39.712Z,99.90
2019-02-15T05:36:09.103Z,99.90
2019-02-15T05:38:38.427Z,99.90
2019-02-15T05:41:07.664Z,99.90
2019-02-15T05:43:36.764Z,99.90
2019-02-15T05:46:06.258Z,99.90
2019-02-15T05:48:35.529Z,99.90
2019-02-15T05:51:04.672Z,99.90
2019-02-15T05:53:33.700Z,99.90
2019-02-15T05:56:03.326Z,99.90
2019-02-15T05:58:32.433Z,99.90
2019-02-15T06:01:01.592Z,99.90
2019-02-15T06:03:30.677Z,99.90
2019-02-15T06:06:00.246Z,99.90
2019-02-15T06:08:31.270Z,99.90
2019-02-15T06:11:07.276Z,99.90
2019-02-15T06:13:31.284Z,99.90
2019-02-15T06:16:00.599Z,99.90
2019-02-15T06:18:29.718Z,99.90
2019-02-15T06:20:59.093Z,99.90
2019-02-15T06:23:28.400Z,99.90
2019-02-15T06:25:57.539Z,99.90
2019-02-15T06:28:26.644Z,99.90
2019-02-15T06:30:56.093Z,99.90
2019-02-15T06:33:25.622Z,99.90
2019-02-15T06:35:55.000Z,99.90
2019-02-15T06:38:24.264Z,99.90
2019-02-15T06:40:54.307Z,99.90
2019-02-15T06:43:24.778Z,99.90
2019-02-15T06:45:54.380Z,99.90
2019-02-15T06:48:25.000Z,99.90
2019-02-15T06:50:55.005Z,99.90
2019-02-15T06:53:24.924Z,99.90
2019-02-15T06:55:54.756Z,99.90
2019-02-15T06:58:24.768Z,99.90
2019-02-15T07:01:12.944Z,99.90
2019-02-15T07:03:59.836Z,99.90
2019-02-15T07:06:29.095Z,99.90
2019-02-15T07:08:58.268Z,99.90
2019-02-15T07:11:27.385Z,99.90
2019-02-15T07:13:56.536Z,99.90
2019-02-15T07:16:26.017Z,99.90
2019-02-15T07:18:56.048Z,99.90
2019-02-15T07:21:25.657Z,99.90
2019-02-15T07:23:55.700Z,99.90
2019-02-15T07:26:24.809Z,99.90
2019-02-15T07:28:53.949Z,99.90
2019-02-15T07:31:23.383Z,99.90
2019-02-15T07:33:53.355Z,99.90
2019-02-15T07:36:22.717Z,99.90
2019-02-15T07:38:51.824Z,99.90
2019-02-15T07:41:20.908Z,99.90
2019-02-15T07:43:50.013Z,99.90
2019-02-15T07:46:19.527Z,99.90
2019-02-15T07:48:48.870Z,99.90
2019-02-15T07:51:17.973Z,99.90
2019-02-15T07:53:47.348Z,99.90
2019-02-15T07:56:16.496Z,99.90
2019-02-15T07:58:45.680Z,99.90
2019-02-15T08:01:14.942Z,99.90
2019-02-15T08:03:45.679Z,99.90
2019-02-15T08:06:15.268Z,99.90
2019-02-15T08:08:44.656Z,99.90
2019-02-15T08:11:14.005Z,99.90
2019-02-15T08:13:43.216Z,99.90
2019-02-15T08:16:12.424Z,99.90
2019-02-15T08:18:41.461Z,99.90
2019-02-15T08:21:10.552Z,99.90
2019-02-15T08:23:39.645Z,99.90
2019-02-15T08:26:09.122Z,99.90
2019-02-15T08:28:38.801Z,99.90
2019-02-15T08:31:07.888Z,99.90
2019-02-15T08:33:37.332Z,99.90
2019-02-15T08:36:06.552Z,99.90
2019-02-15T08:38:35.647Z,99.90
2019-02-15T08:41:05.432Z,99.90
2019-02-15T08:43:34.744Z,99.90
2019-02-15T08:46:04.420Z,99.90
2019-02-15T08:48:33.488Z,99.90
2019-02-15T08:51:02.475Z,99.90
2019-02-15T08:53:31.592Z,99.90
2019-02-15T08:56:00.820Z,99.90
2019-02-15T08:58:30.152Z,99.90
2019-02-15T09:00:59.352Z,99.90
2019-02-15T09:03:29.268Z,99.90
2019-02-15T09:05:59.360Z,99.90
2019-02-15T09:08:30.139Z,99.90
2019-02-15T09:10:59.667Z,99.90
2019-02-15T09:13:29.678Z,99.70
2019-02-15T09:15:59.737Z,99.90
2019-02-15T09:18:30.210Z,99.30
2019-02-15T09:21:02.932Z,98.90
2019-02-15T09:23:32.275Z,98.50
2019-02-15T09:26:02.365Z,97.60
2019-02-15T09:28:42.148Z,96.00
2019-02-15T09:31:11.228Z,95.00
2019-02-15T09:33:40.373Z,95.20
2019-02-15T09:36:10.140Z,94.10
2019-02-15T09:38:39.733Z,93.60
2019-02-15T09:41:08.888Z,94.60
2019-02-15T09:43:37.933Z,94.20
2019-02-15T09:46:07.128Z,92.30
2019-02-15T09:48:36.309Z,92.50
2019-02-15T09:51:05.336Z,91.60
2019-02-15T09:53:34.496Z,91.70
2019-02-15T09:56:03.855Z,91.90
2019-02-15T09:58:33.369Z,90.60
2019-02-15T10:01:05.666Z,90.80
2019-02-15T10:03:35.140Z,90.90
2019-02-15T10:06:04.247Z,89.10
2019-02-15T10:08:33.320Z,88.80
2019-02-15T10:11:02.542Z,91.00
2019-02-15T10:13:32.492Z,90.70
2019-02-15T10:16:02.072Z,90.00
2019-02-15T10:18:31.972Z,88.10
2019-02-15T10:21:05.178Z,90.00
2019-02-15T10:23:34.284Z,87.60
2019-02-15T10:26:03.517Z,88.80
2019-02-15T10:28:32.993Z,87.50
2019-02-15T10:31:05.874Z,89.20
2019-02-15T10:33:35.282Z,87.20
2019-02-15T10:36:04.376Z,88.10
2019-02-15T10:38:33.424Z,89.30
2019-02-15T10:41:03.384Z,84.60
2019-02-15T10:43:33.421Z,83.80
2019-02-15T10:46:03.943Z,84.30
2019-02-15T10:48:33.858Z,82.20
2019-02-15T10:51:07.796Z,82.10
2019-02-15T10:53:37.547Z,83.40
2019-02-15T10:56:06.671Z,84.80
2019-02-15T10:58:36.189Z,86.50
2019-02-15T11:01:05.652Z,90.20
2019-02-15T11:03:36.587Z,81.00
2019-02-15T11:06:05.737Z,79.90
2019-02-15T11:08:35.610Z,81.80
2019-02-15T11:11:04.945Z,82.70
2019-02-15T11:13:34.648Z,81.20
2019-02-15T11:16:04.628Z,80.00
2019-02-15T11:18:34.324Z,80.60
2019-02-15T11:21:04.421Z,81.90
2019-02-15T11:23:34.381Z,79.60
2019-02-15T11:26:04.580Z,79.40
2019-02-15T11:28:34.920Z,78.60
2019-02-15T11:31:04.641Z,82.00
2019-02-15T11:33:33.856Z,81.70
2019-02-15T11:36:03.264Z,78.60
2019-02-15T11:38:32.489Z,77.80
2019-02-15T11:41:10.699Z,82.10
2019-02-15T11:43:32.752Z,79.10
2019-02-15T11:46:01.879Z,81.10
2019-02-15T11:48:31.269Z,78.10
2019-02-15T11:51:00.324Z,79.00
2019-02-15T11:53:35.357Z,76.90
2019-02-15T11:56:10.326Z,79.10
2019-02-15T11:58:39.441Z,77.60
2019-02-15T12:01:08.708Z,78.60
2019-02-15T12:03:37.825Z,77.70
2019-02-15T12:06:07.269Z,78.30
2019-02-15T12:08:41.144Z,78.30
2019-02-15T12:11:11.802Z,77.70
2019-02-15T12:13:41.744Z,75.60
2019-02-15T12:16:22.524Z,77.00
2019-02-15T12:18:52.010Z,77.50
2019-02-15T12:21:21.406Z,75.90
2019-02-15T12:23:50.847Z,77.50
2019-02-15T12:26:20.291Z,76.10
2019-02-15T12:28:50.312Z,75.90
2019-02-15T12:31:21.303Z,75.40
2019-02-15T12:33:50.508Z,74.60
2019-02-15T12:36:19.919Z,75.10
2019-02-15T12:38:49.941Z,73.10
2019-02-15T12:41:20.388Z,76.30
2019-02-15T12:43:50.276Z,73.00
2019-02-15T12:46:19.931Z,75.00
2019-02-15T12:48:50.251Z,73.70
2019-02-15T12:51:20.292Z,72.80
2019-02-15T12:53:49.892Z,73.20
2019-02-15T12:56:19.955Z,74.20
2019-02-15T12:58:51.589Z,72.60
2019-02-15T13:01:20.966Z,73.70
2019-02-15T13:03:50.280Z,73.20
2019-02-15T13:06:28.468Z,74.50
2019-02-15T13:08:51.296Z,73.60
2019-02-15T13:11:20.751Z,73.30
2019-02-15T13:13:50.664Z,73.10
2019-02-15T13:16:20.452Z,73.30
2019-02-15T13:18:51.420Z,72.70
2019-02-15T13:21:21.209Z,73.30
2019-02-15T13:23:50.381Z,71.90
2019-02-15T13:26:20.617Z,70.80
2019-02-15T13:28:50.460Z,70.70
2019-02-15T13:31:20.016Z,71.00
2019-02-15T13:33:50.113Z,71.80
2019-02-15T13:36:20.396Z,70.30
2019-02-15T13:38:50.052Z,70.80
2019-02-15T13:41:20.072Z,71.60
2019-02-15T13:43:50.076Z,71.60
2019-02-15T13:46:20.497Z,72.60
2019-02-15T13:48:50.381Z,71.90
2019-02-15T13:51:20.428Z,71.80
2019-02-15T13:53:50.212Z,71.00
2019-02-15T13:56:20.536Z,72.10
2019-02-15T13:58:50.088Z,72.80
2019-02-15T14:01:20.273Z,69.70
2019-02-15T14:03:50.408Z,70.20
2019-02-15T14:06:21.009Z,69.20
2019-02-15T14:08:50.444Z,71.00
2019-02-15T14:11:20.964Z,70.50
2019-02-15T14:13:50.527Z,71.70
2019-02-15T14:16:20.449Z,72.30
2019-02-15T14:18:50.752Z,70.80
2019-02-15T14:21:20.171Z,71.10
2019-02-15T14:23:50.660Z,70.30
2019-02-15T14:26:20.144Z,68.00
2019-02-15T14:28:52.094Z,67.90
2019-02-15T14:31:21.496Z,67.60
2019-02-15T14:33:50.690Z,68.60
2019-02-15T14:36:20.864Z,69.30
2019-02-15T14:38:50.168Z,69.40
2019-02-15T14:41:20.524Z,69.00
2019-02-15T14:43:50.469Z,68.50
2019-02-15T14:46:20.608Z,67.80
2019-02-15T14:48:50.143Z,67.60
2019-02-15T14:51:20.385Z,68.20
2019-02-15T14:53:50.129Z,68.20
2019-02-15T14:56:20.453Z,67.90
2019-02-15T14:58:50.704Z,66.80
2019-02-15T15:01:20.190Z,66.50
2019-02-15T15:03:50.594Z,67.30
2019-02-15T15:06:20.172Z,67.90
2019-02-15T15:08:50.449Z,68.00
2019-02-15T15:11:20.453Z,67.20
2019-02-15T15:13:50.172Z,67.30
2019-02-15T15:16:20.393Z,66.20
2019-02-15T15:18:50.561Z,66.90
2019-02-15T15:21:20.197Z,67.70
2019-02-15T15:23:50.455Z,66.60
2019-02-15T15:26:20.172Z,66.80
2019-02-15T15:28:50.635Z,67.00
2019-02-15T15:31:21.940Z,66.30
2019-02-15T15:33:51.431Z,66.20
2019-02-15T15:36:20.988Z,65.40
2019-02-15T15:38:50.695Z,65.40
2019-02-15T15:41:20.885Z,66.30
2019-02-15T15:43:51.826Z,65.30
2019-02-15T15:46:21.052Z,65.20
2019-02-15T15:48:51.094Z,65.40
2019-02-15T15:51:20.221Z,66.00
2019-02-15T15:53:50.184Z,65.80
2019-02-15T15:56:20.511Z,65.40
2019-02-15T15:58:51.632Z,66.40
2019-02-15T16:01:21.237Z,67.30
2019-02-15T16:03:50.472Z,67.20
2019-02-15T16:06:24.286Z,67.00
2019-02-15T16:08:51.373Z,68.10
2019-02-15T16:11:20.388Z,67.60
2019-02-15T16:13:50.516Z,67.70
2019-02-15T16:16:20.323Z,68.10
2019-02-15T16:18:50.968Z,68.40
2019-02-15T16:21:22.048Z,68.60
2019-02-15T16:23:52.066Z,68.60
2019-02-15T16:26:21.220Z,68.60
2019-02-15T16:28:50.928Z,69.40
2019-02-15T16:31:20.510Z,69.70
2019-02-15T16:33:50.360Z,70.30
2019-02-15T16:36:20.321Z,70.80
2019-02-15T16:38:50.340Z,71.50
2019-02-15T16:41:21.528Z,72.20
2019-02-15T16:43:50.699Z,72.70
2019-02-15T16:46:20.184Z,73.00
2019-02-15T16:48:51.240Z,73.30
2019-02-15T16:51:20.561Z,74.10
2019-02-15T16:53:50.355Z,74.10
2019-02-15T16:56:20.869Z,75.10
2019-02-15T16:58:50.592Z,74.50
2019-02-15T17:01:20.309Z,74.60
2019-02-15T17:03:50.627Z,74.70
2019-02-15T17:06:20.367Z,75.90
2019-02-15T17:08:50.197Z,75.30
2019-02-15T17:11:20.181Z,74.80
2019-02-15T17:13:50.516Z,74.70
2019-02-15T17:16:20.622Z,75.60
2019-02-15T17:18:52.280Z,75.70
2019-02-15T17:21:21.413Z,75.90
2019-02-15T17:23:50.708Z,76.60
2019-02-15T17:26:20.613Z,77.20
2019-02-15T17:28:50.537Z,78.10
2019-02-15T17:31:20.372Z,77.50
2019-02-15T17:33:50.601Z,77.50
2019-02-15T17:36:20.568Z,77.50
2019-02-15T17:38:50.575Z,77.80
2019-02-15T17:41:20.662Z,78.00
2019-02-15T17:43:50.436Z,78.30
2019-02-15T17:46:20.316Z,78.70
2019-02-15T17:48:50.400Z,78.80
2019-02-15T17:51:20.301Z,79.50
2019-02-15T17:53:50.359Z,79.40
2019-02-15T17:56:20.232Z,80.50
2019-02-15T17:58:50.464Z,79.80
2019-02-15T18:01:20.624Z,79.60
2019-02-15T18:03:50.568Z,79.90
2019-02-15T18:06:20.304Z,79.90
2019-02-15T18:08:50.320Z,80.50
2019-02-15T18:11:20.412Z,81.10
2019-02-15T18:13:50.740Z,81.80
2019-02-15T18:16:20.723Z,81.90
2019-02-15T18:18:50.506Z,82.50
2019-02-15T18:21:20.623Z,82.60
2019-02-15T18:23:50.642Z,82.90
2019-02-15T18:26:20.416Z,82.40
2019-02-15T18:28:51.434Z,82.90
2019-02-15T18:31:20.753Z,83.20
2019-02-15T18:33:50.401Z,83.30
2019-02-15T18:36:20.356Z,83.40
2019-02-15T18:38:50.689Z,83.50
2019-02-15T18:41:20.384Z,83.70
2019-02-15T18:43:51.867Z,83.90
2019-02-15T18:46:21.238Z,83.50
2019-02-15T18:48:50.776Z,83.30
2019-02-15T18:51:20.406Z,83.80
2019-02-15T18:53:50.418Z,83.80
2019-02-15T18:56:20.705Z,83.70
2019-02-15T18:58:50.647Z,84.00
2019-02-15T19:01:20.763Z,84.80
2019-02-15T19:03:50.608Z,84.70
2019-02-15T19:06:21.093Z,85.10
2019-02-15T19:08:51.491Z,85.50
2019-02-15T19:11:21.062Z,85.50
2019-02-15T19:13:51.139Z,85.90
2019-02-15T19:16:20.925Z,87.00
2019-02-15T19:18:50.928Z,86.90
2019-02-15T19:21:20.990Z,87.00
2019-02-15T19:23:50.976Z,86.60
2019-02-15T19:26:21.244Z,87.70
2019-02-15T19:28:51.416Z,87.30
2019-02-15T19:31:21.709Z,87.70
2019-02-15T19:33:51.459Z,87.30
2019-02-15T19:36:21.824Z,87.60
2019-02-15T19:38:51.705Z,87.80
2019-02-15T19:41:21.972Z,88.10
2019-02-15T19:43:51.856Z,88.30
2019-02-15T19:46:22.225Z,89.00
2019-02-15T19:48:52.409Z,89.10
2019-02-15T19:51:22.272Z,89.90
2019-02-15T19:53:52.756Z,89.70
2019-02-15T19:56:22.484Z,89.70
2019-02-15T19:58:52.402Z,89.50
2019-02-15T20:01:22.472Z,90.00
2019-02-15T20:03:52.565Z,90.20
2019-02-15T20:06:22.625Z,90.10
2019-02-15T20:08:52.770Z,90.30
2019-02-15T20:11:22.696Z,90.10
2019-02-15T20:13:52.748Z,90.40
2019-02-15T20:16:23.216Z,90.20
2019-02-15T20:18:52.924Z,90.20
2019-02-15T20:21:23.353Z,90.10
2019-02-15T20:23:53.324Z,90.40
2019-02-15T20:26:23.396Z,90.60
2019-02-15T20:28:53.608Z,91.10
2019-02-15T20:31:23.678Z,91.10
2019-02-15T20:33:54.273Z,91.00
2019-02-15T20:36:24.103Z,90.90
2019-02-15T20:38:54.067Z,91.20
2019-02-15T20:41:24.487Z,91.40
2019-02-15T20:43:54.260Z,91.70
2019-02-15T20:46:24.878Z,91.90
2019-02-15T20:49:04.083Z,92.00
2019-02-15T20:51:25.933Z,92.10
2019-02-15T20:53:55.198Z,92.00
2019-02-15T20:56:25.069Z,92.30
2019-02-15T20:58:55.553Z,92.60
2019-02-15T21:01:25.848Z,92.60
2019-02-15T21:03:55.329Z,92.90
2019-02-15T21:06:24.973Z,93.10
2019-02-15T21:08:55.217Z,93.40
2019-02-15T21:11:25.245Z,93.40
2019-02-15T21:13:55.324Z,93.70
2019-02-15T21:16:27.436Z,93.90
2019-02-15T21:18:56.725Z,93.90
2019-02-15T21:21:25.876Z,94.00
2019-02-15T21:23:55.964Z,94.40
2019-02-15T21:26:25.985Z,94.40
2019-02-15T21:28:56.028Z,94.50
2019-02-15T21:31:26.636Z,94.70
2019-02-15T21:33:56.276Z,94.60
2019-02-15T21:36:26.312Z,94.70
2019-02-15T21:38:58.066Z,95.00
2019-02-15T21:41:27.605Z,95.00
2019-02-15T21:43:57.247Z,95.10
2019-02-15T21:46:26.709Z,95.20
2019-02-15T21:48:56.605Z,95.50
2019-02-15T21:51:26.640Z,96.00
2019-02-15T21:53:56.968Z,96.20
2019-02-15T21:56:27.224Z,96.00
2019-02-15T21:58:57.364Z,96.10
2019-02-15T22:01:27.644Z,96.20
2019-02-15T22:03:58.252Z,96.40
2019-02-15T22:06:27.854Z,96.50
2019-02-15T22:08:57.340Z,96.40
2019-02-15T22:11:26.431Z,97.00
2019-02-15T22:13:55.552Z,96.80
2019-02-15T22:16:24.988Z,97.00
2019-02-15T22:18:54.208Z,97.10
2019-02-15T22:21:23.670Z,97.20
2019-02-15T22:23:52.998Z,97.30
2019-02-15T22:26:22.403Z,97.80
2019-02-15T22:28:51.575Z,97.20
2019-02-15T22:31:20.676Z,97.50
2019-02-15T22:33:50.436Z,97.50
2019-02-15T22:36:19.568Z,97.70
2019-02-15T22:38:48.668Z,97.60
2019-02-15T22:41:21.920Z,97.80
2019-02-15T22:43:51.298Z,97.80
2019-02-15T22:46:20.396Z,97.80
2019-02-15T22:48:49.969Z,98.20
2019-02-15T22:51:19.152Z,98.20
2019-02-15T22:53:48.764Z,98.30
2019-02-15T22:56:18.301Z,98.40
2019-02-15T22:58:48.065Z,98.70
2019-02-15T23:01:19.752Z,99.00
2019-02-15T23:03:48.904Z,98.90
2019-02-15T23:06:18.064Z,98.90
2019-02-15T23:08:48.997Z,99.30
2019-02-15T23:11:19.255Z,99.20
2019-02-15T23:13:48.424Z,99.40
2019-02-15T23:16:17.850Z,99.40
2019-02-15T23:18:47.092Z,99.50
2019-02-15T23:21:17.424Z,99.60
2019-02-15T23:23:46.489Z,99.40
2019-02-15T23:26:15.906Z,99.60
2019-02-15T23:28:45.192Z,99.60
2019-02-15T23:31:14.320Z,99.80
2019-02-15T23:33:43.707Z,99.90
2019-02-15T23:36:12.698Z,99.90
2019-02-15T23:38:42.880Z,99.90
2019-02-15T23:41:12.006Z,99.90
2019-02-15T23:43:41.216Z,99.90
2019-02-15T23:46:10.266Z,99.90
2019-02-15T23:48:40.184Z,99.90
2019-02-15T23:51:09.525Z,99.90
2019-02-15T23:53:39.145Z,99.90
2019-02-15T23:56:09.043Z,99.90
2019-02-15T23:58:38.645Z,99.90
